sensor_id;sensor_type;location;lat;lon;timestamp;temperature;humidity
36446;DHT22;22472;50.848;-1.216;2022-07-29T00:00:47;16.30;99.90
36446;DHT22;22472;50.848;-1.216;2022-07-29T00:03:14;16.30;99.90
36446;DHT22;22472;50.848;-1.216;2022-07-29T00:05:41;16.30;99.90
36446;DHT22;22472;50.848;-1.216;2022-07-29T00:08:09;16.30;99.90
36446;DHT22;22472;50.848;-1.216;2022-07-29T00:10:37;16.30;99.90
36446;DHT22;22472;50.848;-1.216;2022-07-29T00:13:04;16.30;99.90
36446;DHT22;22472;50.848;-1.216;2022-07-29T00:15:31;16.30;99.90
36446;DHT22;22472;50.848;-1.216;2022-07-29T00:17:58;16.20;99.90
36446;DHT22;22472;50.848;-1.216;2022-07-29T00:20:26;16.20;99.90
36446;DHT22;22472;50.848;-1.216;2022-07-29T00:22:53;16.20;99.90
36446;DHT22;22472;50.848;-1.216;2022-07-29T00:25:20;16.20;99.90
36446;DHT22;22472;50.848;-1.216;2022-07-29T00:27:48;16.20;99.90
36446;DHT22;22472;50.848;-1.216;2022-07-29T00:30:15;16.20;99.90
36446;DHT22;22472;50.848;-1.216;2022-07-29T00:32:42;16.20;99.90
36446;DHT22;22472;50.848;-1.216;2022-07-29T00:35:09;16.20;99.90
36446;DHT22;22472;50.848;-1.216;2022-07-29T00:37:54;16.10;99.90
36446;DHT22;22472;50.848;-1.216;2022-07-29T00:40:21;16.10;99.90
36446;DHT22;22472;50.848;-1.216;2022-07-29T00:42:51;16.10;99.90
36446;DHT22;22472;50.848;-1.216;2022-07-29T00:45:19;16.10;99.90
36446;DHT22;22472;50.848;-1.216;2022-07-29T00:47:47;16.10;99.90
36446;DHT22;22472;50.848;-1.216;2022-07-29T00:50:14;16.10;99.90
36446;DHT22;22472;50.848;-1.216;2022-07-29T00:52:43;16.10;99.90
36446;DHT22;22472;50.848;-1.216;2022-07-29T00:55:11;16.10;99.90
36446;DHT22;22472;50.848;-1.216;2022-07-29T00:57:40;16.10;99.90
36446;DHT22;22472;50.848;-1.216;2022-07-29T01:00:11;16.10;99.90
36446;DHT22;22472;50.848;-1.216;2022-07-29T01:02:39;16.10;99.90
36446;DHT22;22472;50.848;-1.216;2022-07-29T01:05:07;16.10;99.90
36446;DHT22;22472;50.848;-1.216;2022-07-29T01:07:35;16.10;99.90
36446;DHT22;22472;50.848;-1.216;2022-07-29T01:10:03;16.10;99.90
36446;DHT22;22472;50.848;-1.216;2022-07-29T01:12:31;16.10;99.90
36446;DHT22;22472;50.848;-1.216;2022-07-29T01:15:00;16.00;99.90
36446;DHT22;22472;50.848;-1.216;2022-07-29T01:17:33;16.10;99.90
36446;DHT22;22472;50.848;-1.216;2022-07-29T01:20:09;16.00;99.90
36446;DHT22;22472;50.848;-1.216;2022-07-29T01:23:00;16.10;99.90
36446;DHT22;22472;50.848;-1.216;2022-07-29T01:26:01;16.00;99.90
36446;DHT22;22472;50.848;-1.216;2022-07-29T01:28:57;16.00;99.90
36446;DHT22;22472;50.848;-1.216;2022-07-29T01:31:30;16.00;99.90
36446;DHT22;22472;50.848;-1.216;2022-07-29T01:34:02;16.00;99.90
36446;DHT22;22472;50.848;-1.216;2022-07-29T01:36:33;16.00;99.90
36446;DHT22;22472;50.848;-1.216;2022-07-29T01:39:07;16.00;99.90
36446;DHT22;22472;50.848;-1.216;2022-07-29T01:41:38;15.90;99.90
36446;DHT22;22472;50.848;-1.216;2022-07-29T01:44:20;15.90;99.90
36446;DHT22;22472;50.848;-1.216;2022-07-29T01:46:53;15.90;99.90
36446;DHT22;22472;50.848;-1.216;2022-07-29T01:49:27;15.90;99.90
36446;DHT22;22472;50.848;-1.216;2022-07-29T01:51:58;15.80;99.90
36446;DHT22;22472;50.848;-1.216;2022-07-29T01:54:30;15.80;99.90
36446;DHT22;22472;50.848;-1.216;2022-07-29T01:56:58;15.80;99.90
36446;DHT22;22472;50.848;-1.216;2022-07-29T01:59:29;15.70;99.90
36446;DHT22;22472;50.848;-1.216;2022-07-29T02:01:58;15.70;99.90
36446;DHT22;22472;50.848;-1.216;2022-07-29T02:04:27;15.60;99.90
36446;DHT22;22472;50.848;-1.216;2022-07-29T02:07:00;15.60;99.90
36446;DHT22;22472;50.848;-1.216;2022-07-29T02:09:29;15.70;99.90
36446;DHT22;22472;50.848;-1.216;2022-07-29T02:11:59;15.60;99.90
36446;DHT22;22472;50.848;-1.216;2022-07-29T02:14:32;15.70;99.90
36446;DHT22;22472;50.848;-1.216;2022-07-29T02:17:00;15.60;99.90
36446;DHT22;22472;50.848;-1.216;2022-07-29T02:19:29;15.60;99.90
36446;DHT22;22472;50.848;-1.216;2022-07-29T02:21:58;15.60;99.90
36446;DHT22;22472;50.848;-1.216;2022-07-29T02:24:27;15.60;99.90
36446;DHT22;22472;50.848;-1.216;2022-07-29T02:26:56;15.60;99.90
36446;DHT22;22472;50.848;-1.216;2022-07-29T02:29:26;15.70;99.90
36446;DHT22;22472;50.848;-1.216;2022-07-29T02:31:56;15.60;99.90
36446;DHT22;22472;50.848;-1.216;2022-07-29T02:34:24;15.60;99.90
36446;DHT22;22472;50.848;-1.216;2022-07-29T02:36:52;15.60;99.90
36446;DHT22;22472;50.848;-1.216;2022-07-29T02:39:21;15.60;99.90
36446;DHT22;22472;50.848;-1.216;2022-07-29T02:41:51;15.60;99.90
36446;DHT22;22472;50.848;-1.216;2022-07-29T02:44:20;15.60;99.90
36446;DHT22;22472;50.848;-1.216;2022-07-29T02:46:52;15.60;99.90
36446;DHT22;22472;50.848;-1.216;2022-07-29T02:49:30;15.60;99.90
36446;DHT22;22472;50.848;-1.216;2022-07-29T02:52:01;15.60;99.90
36446;DHT22;22472;50.848;-1.216;2022-07-29T02:54:33;15.50;99.90
36446;DHT22;22472;50.848;-1.216;2022-07-29T02:57:05;15.60;99.90
36446;DHT22;22472;50.848;-1.216;2022-07-29T02:59:34;15.60;99.90
36446;DHT22;22472;50.848;-1.216;2022-07-29T03:02:04;15.50;99.90
36446;DHT22;22472;50.848;-1.216;2022-07-29T03:04:34;15.50;99.90
36446;DHT22;22472;50.848;-1.216;2022-07-29T03:07:03;15.50;99.90
36446;DHT22;22472;50.848;-1.216;2022-07-29T03:09:31;15.50;99.90
36446;DHT22;22472;50.848;-1.216;2022-07-29T03:12:00;15.40;99.90
36446;DHT22;22472;50.848;-1.216;2022-07-29T03:14:28;15.40;99.90
36446;DHT22;22472;50.848;-1.216;2022-07-29T03:16:56;15.30;99.90
36446;DHT22;22472;50.848;-1.216;2022-07-29T03:19:23;15.30;99.90
36446;DHT22;22472;50.848;-1.216;2022-07-29T03:21:52;15.30;99.90
36446;DHT22;22472;50.848;-1.216;2022-07-29T03:24:30;15.30;99.90
36446;DHT22;22472;50.848;-1.216;2022-07-29T03:26:58;15.30;99.90
36446;DHT22;22472;50.848;-1.216;2022-07-29T03:29:25;15.20;99.90
36446;DHT22;22472;50.848;-1.216;2022-07-29T03:31:53;15.20;99.90
36446;DHT22;22472;50.848;-1.216;2022-07-29T03:34:20;15.10;99.90
36446;DHT22;22472;50.848;-1.216;2022-07-29T03:36:48;15.00;99.90
36446;DHT22;22472;50.848;-1.216;2022-07-29T03:39:19;15.00;99.90
36446;DHT22;22472;50.848;-1.216;2022-07-29T03:41:49;15.00;99.90
36446;DHT22;22472;50.848;-1.216;2022-07-29T03:44:17;15.00;99.90
36446;DHT22;22472;50.848;-1.216;2022-07-29T03:46:48;15.00;99.90
36446;DHT22;22472;50.848;-1.216;2022-07-29T03:49:16;15.00;99.90
36446;DHT22;22472;50.848;-1.216;2022-07-29T03:51:45;15.00;99.90
36446;DHT22;22472;50.848;-1.216;2022-07-29T03:54:12;15.00;99.90
36446;DHT22;22472;50.848;-1.216;2022-07-29T03:56:43;15.10;99.90
36446;DHT22;22472;50.848;-1.216;2022-07-29T03:59:14;15.10;99.90
36446;DHT22;22472;50.848;-1.216;2022-07-29T04:01:42;15.10;99.90
36446;DHT22;22472;50.848;-1.216;2022-07-29T04:04:10;15.10;99.90
36446;DHT22;22472;50.848;-1.216;2022-07-29T04:06:39;15.10;99.90
36446;DHT22;22472;50.848;-1.216;2022-07-29T04:09:07;15.10;99.90
36446;DHT22;22472;50.848;-1.216;2022-07-29T04:11:35;15.10;99.90
36446;DHT22;22472;50.848;-1.216;2022-07-29T04:14:04;15.10;99.90
36446;DHT22;22472;50.848;-1.216;2022-07-29T04:16:31;15.10;99.90
36446;DHT22;22472;50.848;-1.216;2022-07-29T04:18:58;15.10;99.90
36446;DHT22;22472;50.848;-1.216;2022-07-29T04:21:26;15.10;99.90
36446;DHT22;22472;50.848;-1.216;2022-07-29T04:23:53;15.20;99.90
36446;DHT22;22472;50.848;-1.216;2022-07-29T04:26:21;15.20;99.90
36446;DHT22;22472;50.848;-1.216;2022-07-29T04:28:48;15.20;99.90
36446;DHT22;22472;50.848;-1.216;2022-07-29T04:31:16;15.20;99.90
36446;DHT22;22472;50.848;-1.216;2022-07-29T04:33:43;15.20;99.90
36446;DHT22;22472;50.848;-1.216;2022-07-29T04:36:10;15.20;99.90
36446;DHT22;22472;50.848;-1.216;2022-07-29T04:38:38;15.20;99.90
36446;DHT22;22472;50.848;-1.216;2022-07-29T04:41:05;15.30;99.90
36446;DHT22;22472;50.848;-1.216;2022-07-29T04:43:34;15.30;99.90
36446;DHT22;22472;50.848;-1.216;2022-07-29T04:46:01;15.30;99.90
36446;DHT22;22472;50.848;-1.216;2022-07-29T04:48:29;15.20;99.90
36446;DHT22;22472;50.848;-1.216;2022-07-29T04:50:56;15.30;99.90
36446;DHT22;22472;50.848;-1.216;2022-07-29T04:53:24;15.30;99.90
36446;DHT22;22472;50.848;-1.216;2022-07-29T04:55:51;15.30;99.90
36446;DHT22;22472;50.848;-1.216;2022-07-29T04:58:18;15.30;99.90
36446;DHT22;22472;50.848;-1.216;2022-07-29T05:00:45;15.40;99.90
36446;DHT22;22472;50.848;-1.216;2022-07-29T05:03:12;15.40;99.90
36446;DHT22;22472;50.848;-1.216;2022-07-29T05:05:41;15.50;99.90
36446;DHT22;22472;50.848;-1.216;2022-07-29T05:08:08;15.60;99.90
36446;DHT22;22472;50.848;-1.216;2022-07-29T05:10:35;15.60;99.90
36446;DHT22;22472;50.848;-1.216;2022-07-29T05:13:04;15.70;99.90
36446;DHT22;22472;50.848;-1.216;2022-07-29T05:15:32;15.70;99.90
36446;DHT22;22472;50.848;-1.216;2022-07-29T05:17:59;15.70;99.90
36446;DHT22;22472;50.848;-1.216;2022-07-29T05:20:26;15.80;99.90
36446;DHT22;22472;50.848;-1.216;2022-07-29T05:22:56;15.80;99.90
36446;DHT22;22472;50.848;-1.216;2022-07-29T05:25:24;15.90;99.90
36446;DHT22;22472;50.848;-1.216;2022-07-29T05:27:51;15.90;99.90
36446;DHT22;22472;50.848;-1.216;2022-07-29T05:30:18;15.90;99.90
36446;DHT22;22472;50.848;-1.216;2022-07-29T05:32:46;16.00;99.90
36446;DHT22;22472;50.848;-1.216;2022-07-29T05:35:13;16.10;99.90
36446;DHT22;22472;50.848;-1.216;2022-07-29T05:37:41;16.10;99.90
36446;DHT22;22472;50.848;-1.216;2022-07-29T05:40:10;16.20;99.90
36446;DHT22;22472;50.848;-1.216;2022-07-29T05:42:37;16.40;99.90
36446;DHT22;22472;50.848;-1.216;2022-07-29T05:45:05;16.50;99.90
36446;DHT22;22472;50.848;-1.216;2022-07-29T05:47:32;16.60;99.90
36446;DHT22;22472;50.848;-1.216;2022-07-29T05:49:59;16.60;99.90
36446;DHT22;22472;50.848;-1.216;2022-07-29T05:52:26;16.70;99.90
36446;DHT22;22472;50.848;-1.216;2022-07-29T05:54:53;16.80;99.90
36446;DHT22;22472;50.848;-1.216;2022-07-29T05:57:23;16.90;99.90
36446;DHT22;22472;50.848;-1.216;2022-07-29T05:59:51;16.90;99.90
36446;DHT22;22472;50.848;-1.216;2022-07-29T06:02:18;16.90;99.90
36446;DHT22;22472;50.848;-1.216;2022-07-29T06:04:45;17.00;99.90
36446;DHT22;22472;50.848;-1.216;2022-07-29T06:07:12;17.00;99.90
36446;DHT22;22472;50.848;-1.216;2022-07-29T06:09:39;17.10;99.90
36446;DHT22;22472;50.848;-1.216;2022-07-29T06:12:07;17.20;99.90
36446;DHT22;22472;50.848;-1.216;2022-07-29T06:14:35;17.30;99.90
36446;DHT22;22472;50.848;-1.216;2022-07-29T06:17:03;17.50;99.90
36446;DHT22;22472;50.848;-1.216;2022-07-29T06:19:33;17.60;99.90
36446;DHT22;22472;50.848;-1.216;2022-07-29T06:22:00;17.70;99.90
36446;DHT22;22472;50.848;-1.216;2022-07-29T06:24:27;17.80;99.90
36446;DHT22;22472;50.848;-1.216;2022-07-29T06:26:54;17.90;99.90
36446;DHT22;22472;50.848;-1.216;2022-07-29T06:29:21;18.00;99.90
36446;DHT22;22472;50.848;-1.216;2022-07-29T06:31:50;18.00;99.90
36446;DHT22;22472;50.848;-1.216;2022-07-29T06:34:17;18.10;99.90
36446;DHT22;22472;50.848;-1.216;2022-07-29T06:36:44;18.20;99.90
36446;DHT22;22472;50.848;-1.216;2022-07-29T06:39:12;18.30;99.90
36446;DHT22;22472;50.848;-1.216;2022-07-29T06:41:39;18.40;99.90
36446;DHT22;22472;50.848;-1.216;2022-07-29T06:44:06;18.40;99.90
36446;DHT22;22472;50.848;-1.216;2022-07-29T06:46:33;18.50;99.90
36446;DHT22;22472;50.848;-1.216;2022-07-29T06:49:01;18.50;99.90
36446;DHT22;22472;50.848;-1.216;2022-07-29T06:51:28;18.60;99.90
36446;DHT22;22472;50.848;-1.216;2022-07-29T06:53:56;18.60;99.90
36446;DHT22;22472;50.848;-1.216;2022-07-29T06:56:23;18.60;99.90
36446;DHT22;22472;50.848;-1.216;2022-07-29T06:58:50;18.60;99.90
36446;DHT22;22472;50.848;-1.216;2022-07-29T07:01:17;18.60;99.90
36446;DHT22;22472;50.848;-1.216;2022-07-29T07:03:45;18.60;99.90
36446;DHT22;22472;50.848;-1.216;2022-07-29T07:06:13;18.60;99.90
36446;DHT22;22472;50.848;-1.216;2022-07-29T07:08:40;18.70;99.90
36446;DHT22;22472;50.848;-1.216;2022-07-29T07:11:08;18.70;99.90
36446;DHT22;22472;50.848;-1.216;2022-07-29T07:13:35;18.70;99.90
36446;DHT22;22472;50.848;-1.216;2022-07-29T07:16:02;18.70;99.90
36446;DHT22;22472;50.848;-1.216;2022-07-29T07:18:30;18.60;99.90
36446;DHT22;22472;50.848;-1.216;2022-07-29T07:20:58;18.70;99.90
36446;DHT22;22472;50.848;-1.216;2022-07-29T07:23:27;18.90;99.90
36446;DHT22;22472;50.848;-1.216;2022-07-29T07:25:54;19.30;99.90
36446;DHT22;22472;50.848;-1.216;2022-07-29T07:28:21;19.60;99.90
36446;DHT22;22472;50.848;-1.216;2022-07-29T07:30:48;19.90;99.90
36446;DHT22;22472;50.848;-1.216;2022-07-29T07:33:15;20.00;99.90
36446;DHT22;22472;50.848;-1.216;2022-07-29T07:35:42;20.30;99.90
36446;DHT22;22472;50.848;-1.216;2022-07-29T07:38:09;20.50;99.90
36446;DHT22;22472;50.848;-1.216;2022-07-29T07:40:38;20.70;99.90
36446;DHT22;22472;50.848;-1.216;2022-07-29T07:43:05;20.90;99.90
36446;DHT22;22472;50.848;-1.216;2022-07-29T07:45:32;21.00;99.90
36446;DHT22;22472;50.848;-1.216;2022-07-29T07:48:00;21.20;99.90
36446;DHT22;22472;50.848;-1.216;2022-07-29T07:50:27;21.50;99.90
36446;DHT22;22472;50.848;-1.216;2022-07-29T07:52:55;21.80;99.90
36446;DHT22;22472;50.848;-1.216;2022-07-29T07:55:23;21.90;99.90
36446;DHT22;22472;50.848;-1.216;2022-07-29T07:57:52;21.90;99.90
36446;DHT22;22472;50.848;-1.216;2022-07-29T08:00:19;22.00;99.90
36446;DHT22;22472;50.848;-1.216;2022-07-29T08:02:47;22.30;99.90
36446;DHT22;22472;50.848;-1.216;2022-07-29T08:05:14;22.60;99.90
36446;DHT22;22472;50.848;-1.216;2022-07-29T08:07:44;22.90;99.90
36446;DHT22;22472;50.848;-1.216;2022-07-29T08:10:12;23.10;99.90
36446;DHT22;22472;50.848;-1.216;2022-07-29T08:12:39;23.40;99.90
36446;DHT22;22472;50.848;-1.216;2022-07-29T08:15:08;23.70;99.90
36446;DHT22;22472;50.848;-1.216;2022-07-29T08:17:36;23.80;99.90
36446;DHT22;22472;50.848;-1.216;2022-07-29T08:20:04;24.10;99.90
36446;DHT22;22472;50.848;-1.216;2022-07-29T08:22:31;24.30;99.90
36446;DHT22;22472;50.848;-1.216;2022-07-29T08:24:58;24.80;99.90
36446;DHT22;22472;50.848;-1.216;2022-07-29T08:27:25;25.10;99.90
36446;DHT22;22472;50.848;-1.216;2022-07-29T08:29:54;25.20;99.90
36446;DHT22;22472;50.848;-1.216;2022-07-29T08:32:23;25.40;99.90
36446;DHT22;22472;50.848;-1.216;2022-07-29T08:34:50;25.50;99.90
36446;DHT22;22472;50.848;-1.216;2022-07-29T08:37:17;25.20;99.90
36446;DHT22;22472;50.848;-1.216;2022-07-29T08:39:44;25.40;99.90
36446;DHT22;22472;50.848;-1.216;2022-07-29T08:42:11;25.40;99.90
36446;DHT22;22472;50.848;-1.216;2022-07-29T08:44:38;25.50;99.90
36446;DHT22;22472;50.848;-1.216;2022-07-29T08:47:06;25.90;99.90
36446;DHT22;22472;50.848;-1.216;2022-07-29T08:49:35;26.20;99.90
36446;DHT22;22472;50.848;-1.216;2022-07-29T08:52:02;26.60;99.90
36446;DHT22;22472;50.848;-1.216;2022-07-29T08:54:30;26.60;99.90
36446;DHT22;22472;50.848;-1.216;2022-07-29T08:56:57;26.80;99.90
36446;DHT22;22472;50.848;-1.216;2022-07-29T08:59:26;26.80;99.90
36446;DHT22;22472;50.848;-1.216;2022-07-29T09:01:54;26.90;99.90
36446;DHT22;22472;50.848;-1.216;2022-07-29T09:04:27;26.80;99.90
36446;DHT22;22472;50.848;-1.216;2022-07-29T09:07:00;26.60;99.90
36446;DHT22;22472;50.848;-1.216;2022-07-29T09:09:30;26.90;99.80
36446;DHT22;22472;50.848;-1.216;2022-07-29T09:11:59;26.90;99.70
36446;DHT22;22472;50.848;-1.216;2022-07-29T09:14:26;27.20;99.70
36446;DHT22;22472;50.848;-1.216;2022-07-29T09:16:54;27.50;99.50
36446;DHT22;22472;50.848;-1.216;2022-07-29T09:19:26;27.90;99.50
36446;DHT22;22472;50.848;-1.216;2022-07-29T09:21:55;28.20;99.40
36446;DHT22;22472;50.848;-1.216;2022-07-29T09:24:27;28.40;99.50
36446;DHT22;22472;50.848;-1.216;2022-07-29T09:26:54;28.80;99.40
36446;DHT22;22472;50.848;-1.216;2022-07-29T09:29:22;29.20;99.40
36446;DHT22;22472;50.848;-1.216;2022-07-29T09:31:51;29.60;99.60
36446;DHT22;22472;50.848;-1.216;2022-07-29T09:34:24;29.80;99.60
36446;DHT22;22472;50.848;-1.216;2022-07-29T09:36:53;30.10;99.80
36446;DHT22;22472;50.848;-1.216;2022-07-29T09:39:29;30.40;99.50
36446;DHT22;22472;50.848;-1.216;2022-07-29T09:41:57;30.60;99.30
36446;DHT22;22472;50.848;-1.216;2022-07-29T09:44:25;30.90;99.30
36446;DHT22;22472;50.848;-1.216;2022-07-29T09:46:54;31.10;98.70
36446;DHT22;22472;50.848;-1.216;2022-07-29T09:49:21;31.20;98.10
36446;DHT22;22472;50.848;-1.216;2022-07-29T09:51:59;31.50;98.00
36446;DHT22;22472;50.848;-1.216;2022-07-29T09:54:28;31.60;96.40
36446;DHT22;22472;50.848;-1.216;2022-07-29T09:57:03;31.80;96.20
36446;DHT22;22472;50.848;-1.216;2022-07-29T09:59:31;32.20;95.80
36446;DHT22;22472;50.848;-1.216;2022-07-29T10:01:58;31.80;92.30
36446;DHT22;22472;50.848;-1.216;2022-07-29T10:04:37;31.90;95.40
36446;DHT22;22472;50.848;-1.216;2022-07-29T10:07:04;32.10;94.70
36446;DHT22;22472;50.848;-1.216;2022-07-29T10:09:33;32.30;94.90
36446;DHT22;22472;50.848;-1.216;2022-07-29T10:12:05;32.70;94.70
36446;DHT22;22472;50.848;-1.216;2022-07-29T10:14:33;32.70;94.50
36446;DHT22;22472;50.848;-1.216;2022-07-29T10:17:00;32.60;94.40
36446;DHT22;22472;50.848;-1.216;2022-07-29T10:19:28;32.70;94.30
36446;DHT22;22472;50.848;-1.216;2022-07-29T10:21:56;32.70;93.90
36446;DHT22;22472;50.848;-1.216;2022-07-29T10:24:25;32.80;93.80
36446;DHT22;22472;50.848;-1.216;2022-07-29T10:26:54;33.10;93.60
36446;DHT22;22472;50.848;-1.216;2022-07-29T10:29:22;33.00;93.60
36446;DHT22;22472;50.848;-1.216;2022-07-29T10:31:55;33.30;93.90
36446;DHT22;22472;50.848;-1.216;2022-07-29T10:34:34;33.60;93.70
36446;DHT22;22472;50.848;-1.216;2022-07-29T10:37:10;34.10;93.70
36446;DHT22;22472;50.848;-1.216;2022-07-29T10:39:53;34.40;93.80
36446;DHT22;22472;50.848;-1.216;2022-07-29T10:42:25;34.50;93.60
36446;DHT22;22472;50.848;-1.216;2022-07-29T10:44:53;34.60;93.60
36446;DHT22;22472;50.848;-1.216;2022-07-29T10:47:22;34.20;93.10
36446;DHT22;22472;50.848;-1.216;2022-07-29T10:49:56;33.60;93.20
36446;DHT22;22472;50.848;-1.216;2022-07-29T10:52:24;33.50;93.10
36446;DHT22;22472;50.848;-1.216;2022-07-29T10:54:53;33.60;92.70
36446;DHT22;22472;50.848;-1.216;2022-07-29T10:57:27;33.70;92.80
36446;DHT22;22472;50.848;-1.216;2022-07-29T11:00:27;33.80;92.50
36446;DHT22;22472;50.848;-1.216;2022-07-29T11:02:54;34.00;92.50
36446;DHT22;22472;50.848;-1.216;2022-07-29T11:05:23;34.00;92.00
36446;DHT22;22472;50.848;-1.216;2022-07-29T11:08:18;34.10;91.80
36446;DHT22;22472;50.848;-1.216;2022-07-29T11:10:47;34.10;92.20
36446;DHT22;22472;50.848;-1.216;2022-07-29T11:13:46;34.20;91.90
36446;DHT22;22472;50.848;-1.216;2022-07-29T11:16:14;34.10;91.70
36446;DHT22;22472;50.848;-1.216;2022-07-29T11:19:19;34.10;92.00
36446;DHT22;22472;50.848;-1.216;2022-07-29T11:21:46;34.20;91.90
36446;DHT22;22472;50.848;-1.216;2022-07-29T11:24:16;34.30;91.70
36446;DHT22;22472;50.848;-1.216;2022-07-29T11:26:43;34.30;91.10
36446;DHT22;22472;50.848;-1.216;2022-07-29T11:29:19;33.70;91.00
36446;DHT22;22472;50.848;-1.216;2022-07-29T11:31:49;33.70;91.00
36446;DHT22;22472;50.848;-1.216;2022-07-29T11:34:22;33.90;90.70
36446;DHT22;22472;50.848;-1.216;2022-07-29T11:37:15;34.00;90.70
36446;DHT22;22472;50.848;-1.216;2022-07-29T11:39:43;34.00;90.60
36446;DHT22;22472;50.848;-1.216;2022-07-29T11:42:40;34.10;90.50
36446;DHT22;22472;50.848;-1.216;2022-07-29T11:45:10;34.00;90.50
36446;DHT22;22472;50.848;-1.216;2022-07-29T11:47:40;33.20;90.60
36446;DHT22;22472;50.848;-1.216;2022-07-29T11:50:10;33.20;90.50
36446;DHT22;22472;50.848;-1.216;2022-07-29T11:52:38;33.50;90.60
36446;DHT22;22472;50.848;-1.216;2022-07-29T11:55:12;33.60;90.60
36446;DHT22;22472;50.848;-1.216;2022-07-29T11:57:46;33.90;91.00
36446;DHT22;22472;50.848;-1.216;2022-07-29T12:00:22;33.90;90.80
36446;DHT22;22472;50.848;-1.216;2022-07-29T12:02:50;34.10;90.80
36446;DHT22;22472;50.848;-1.216;2022-07-29T12:05:17;34.10;90.90
36446;DHT22;22472;50.848;-1.216;2022-07-29T12:07:44;34.40;90.90
36446;DHT22;22472;50.848;-1.216;2022-07-29T12:10:11;34.70;90.90
36446;DHT22;22472;50.848;-1.216;2022-07-29T12:12:39;35.10;90.60
36446;DHT22;22472;50.848;-1.216;2022-07-29T12:15:17;35.10;90.60
36446;DHT22;22472;50.848;-1.216;2022-07-29T12:17:46;35.30;90.50
36446;DHT22;22472;50.848;-1.216;2022-07-29T12:20:14;35.10;90.00
36446;DHT22;22472;50.848;-1.216;2022-07-29T12:22:48;35.20;89.70
36446;DHT22;22472;50.848;-1.216;2022-07-29T12:25:15;35.40;88.40
36446;DHT22;22472;50.848;-1.216;2022-07-29T12:27:44;35.20;88.20
36446;DHT22;22472;50.848;-1.216;2022-07-29T12:30:14;35.50;88.00
36446;DHT22;22472;50.848;-1.216;2022-07-29T12:32:44;35.70;87.70
36446;DHT22;22472;50.848;-1.216;2022-07-29T12:35:14;35.70;87.40
36446;DHT22;22472;50.848;-1.216;2022-07-29T12:37:44;35.70;87.40
36446;DHT22;22472;50.848;-1.216;2022-07-29T12:40:11;35.40;87.50
36446;DHT22;22472;50.848;-1.216;2022-07-29T12:42:39;35.50;87.50
36446;DHT22;22472;50.848;-1.216;2022-07-29T12:45:07;35.60;86.70
36446;DHT22;22472;50.848;-1.216;2022-07-29T12:47:53;35.20;86.60
36446;DHT22;22472;50.848;-1.216;2022-07-29T12:50:20;35.40;86.70
36446;DHT22;22472;50.848;-1.216;2022-07-29T12:52:47;35.50;86.30
36446;DHT22;22472;50.848;-1.216;2022-07-29T12:55:15;35.60;86.20
36446;DHT22;22472;50.848;-1.216;2022-07-29T12:57:45;35.60;84.00
36446;DHT22;22472;50.848;-1.216;2022-07-29T13:00:14;35.10;83.70
36446;DHT22;22472;50.848;-1.216;2022-07-29T13:02:42;35.20;83.40
36446;DHT22;22472;50.848;-1.216;2022-07-29T13:05:11;35.30;83.60
36446;DHT22;22472;50.848;-1.216;2022-07-29T13:07:39;35.50;83.80
36446;DHT22;22472;50.848;-1.216;2022-07-29T13:10:14;35.60;83.90
36446;DHT22;22472;50.848;-1.216;2022-07-29T13:13:07;35.70;84.40
36446;DHT22;22472;50.848;-1.216;2022-07-29T13:15:36;35.60;84.00
36446;DHT22;22472;50.848;-1.216;2022-07-29T13:18:04;35.50;83.50
36446;DHT22;22472;50.848;-1.216;2022-07-29T13:20:33;35.80;84.00
36446;DHT22;22472;50.848;-1.216;2022-07-29T13:23:00;36.00;83.80
36446;DHT22;22472;50.848;-1.216;2022-07-29T13:25:29;35.70;82.00
36446;DHT22;22472;50.848;-1.216;2022-07-29T13:27:57;35.60;82.30
36446;DHT22;22472;50.848;-1.216;2022-07-29T13:30:25;35.70;82.50
36446;DHT22;22472;50.848;-1.216;2022-07-29T13:32:52;35.50;82.20
36446;DHT22;22472;50.848;-1.216;2022-07-29T13:35:20;35.50;82.40
36446;DHT22;22472;50.848;-1.216;2022-07-29T13:37:49;35.30;83.00
36446;DHT22;22472;50.848;-1.216;2022-07-29T13:40:16;35.10;82.50
36446;DHT22;22472;50.848;-1.216;2022-07-29T13:42:43;34.70;81.50
36446;DHT22;22472;50.848;-1.216;2022-07-29T13:45:10;34.70;80.60
36446;DHT22;22472;50.848;-1.216;2022-07-29T13:47:38;34.90;80.10
36446;DHT22;22472;50.848;-1.216;2022-07-29T13:50:07;35.10;79.90
36446;DHT22;22472;50.848;-1.216;2022-07-29T13:52:36;35.10;80.60
36446;DHT22;22472;50.848;-1.216;2022-07-29T13:55:07;35.40;80.30
36446;DHT22;22472;50.848;-1.216;2022-07-29T13:57:34;35.20;80.30
36446;DHT22;22472;50.848;-1.216;2022-07-29T14:00:01;35.00;80.30
36446;DHT22;22472;50.848;-1.216;2022-07-29T14:02:28;35.10;80.70
36446;DHT22;22472;50.848;-1.216;2022-07-29T14:04:55;35.40;80.40
36446;DHT22;22472;50.848;-1.216;2022-07-29T14:07:23;35.50;80.60
36446;DHT22;22472;50.848;-1.216;2022-07-29T14:09:50;35.40;80.30
36446;DHT22;22472;50.848;-1.216;2022-07-29T14:12:18;35.40;80.00
36446;DHT22;22472;50.848;-1.216;2022-07-29T14:14:46;35.30;79.20
36446;DHT22;22472;50.848;-1.216;2022-07-29T14:17:13;35.50;78.90
36446;DHT22;22472;50.848;-1.216;2022-07-29T14:19:40;35.60;77.40
36446;DHT22;22472;50.848;-1.216;2022-07-29T14:22:08;35.60;77.20
36446;DHT22;22472;50.848;-1.216;2022-07-29T14:24:36;35.60;76.60
36446;DHT22;22472;50.848;-1.216;2022-07-29T14:27:03;35.60;76.40
36446;DHT22;22472;50.848;-1.216;2022-07-29T14:29:32;35.60;76.00
36446;DHT22;22472;50.848;-1.216;2022-07-29T14:31:59;35.40;76.50
36446;DHT22;22472;50.848;-1.216;2022-07-29T14:34:26;35.60;76.50
36446;DHT22;22472;50.848;-1.216;2022-07-29T14:36:53;35.50;77.50
36446;DHT22;22472;50.848;-1.216;2022-07-29T14:39:21;35.70;77.30
36446;DHT22;22472;50.848;-1.216;2022-07-29T14:41:49;35.80;77.50
36446;DHT22;22472;50.848;-1.216;2022-07-29T14:44:16;35.60;77.70
36446;DHT22;22472;50.848;-1.216;2022-07-29T14:46:45;34.90;77.60
36446;DHT22;22472;50.848;-1.216;2022-07-29T14:49:12;35.00;77.70
36446;DHT22;22472;50.848;-1.216;2022-07-29T14:51:39;35.10;77.50
36446;DHT22;22472;50.848;-1.216;2022-07-29T14:54:07;34.90;80.00
36446;DHT22;22472;50.848;-1.216;2022-07-29T14:56:34;34.60;80.10
36446;DHT22;22472;50.848;-1.216;2022-07-29T14:59:01;34.40;81.30
36446;DHT22;22472;50.848;-1.216;2022-07-29T15:01:28;34.50;81.70
36446;DHT22;22472;50.848;-1.216;2022-07-29T15:03:56;34.50;82.80
36446;DHT22;22472;50.848;-1.216;2022-07-29T15:06:23;34.20;83.00
36446;DHT22;22472;50.848;-1.216;2022-07-29T15:08:50;34.10;83.30
36446;DHT22;22472;50.848;-1.216;2022-07-29T15:11:17;33.70;83.30
36446;DHT22;22472;50.848;-1.216;2022-07-29T15:13:44;33.40;83.30
36446;DHT22;22472;50.848;-1.216;2022-07-29T15:16:11;33.30;83.70
36446;DHT22;22472;50.848;-1.216;2022-07-29T15:18:38;33.40;83.80
36446;DHT22;22472;50.848;-1.216;2022-07-29T15:21:06;33.20;84.10
36446;DHT22;22472;50.848;-1.216;2022-07-29T15:23:33;33.20;84.40
36446;DHT22;22472;50.848;-1.216;2022-07-29T15:26:01;33.30;84.60
36446;DHT22;22472;50.848;-1.216;2022-07-29T15:28:28;33.10;84.40